Time;durP1;ratioP1;P1;durP2;ratioP2;P2;SDS_P1;SDS_P2;PMS_P1;PMS_P2;Temp;Humidity;BMP_temperature;BMP_pressure;BME280_temperature;BME280_humidity;BME280_pressure;Samples;Min_cycle;Max_cycle;Signal;HPM_P1;HPM_P2
2022/03/31 00:00:47;;;;;;;16.52;8.50;;;7.60;99.90;;;;;;5037638;28;20029;-54
2022/03/31 00:03:15;;;;;;;25.17;9.20;;;7.60;99.90;;;;;;5034916;28;20049;-52
2022/03/31 00:05:41;;;;;;;15.38;8.95;;;7.60;99.90;;;;;;5032458;28;20021;-58
2022/03/31 00:08:09;;;;;;;26.63;10.70;;;7.50;99.90;;;;;;5045494;28;20372;-59
2022/03/31 00:10:40;;;;;;;18.38;9.57;;;7.50;99.90;;;;;;5042161;28;20482;-56
2022/03/31 00:13:10;;;;;;;23.02;10.07;;;7.50;99.90;;;;;;5035505;28;20042;-59
2022/03/31 00:15:37;;;;;;;17.65;9.40;;;7.40;99.90;;;;;;5038224;28;20630;-55
2022/03/31 00:18:04;;;;;;;17.88;10.13;;;7.50;99.90;;;;;;5034299;28;20048;-59
2022/03/31 00:20:30;;;;;;;19.15;11.05;;;7.40;99.90;;;;;;5043119;28;20021;-56
2022/03/31 00:22:56;;;;;;;19.23;11.77;;;7.40;99.90;;;;;;5037563;28;20030;-54
2022/03/31 00:25:23;;;;;;;23.48;10.43;;;7.40;99.90;;;;;;5035452;28;20112;-52
2022/03/31 00:27:50;;;;;;;23.85;11.45;;;7.40;99.90;;;;;;5020408;28;20033;-55
2022/03/31 00:30:15;;;;;;;19.92;10.20;;;7.40;99.90;;;;;;5037736;28;20029;-55
2022/03/31 00:32:41;;;;;;;20.98;11.30;;;7.40;99.90;;;;;;5039542;28;20044;-56
2022/03/31 00:35:10;;;;;;;17.13;9.63;;;7.30;99.90;;;;;;5037115;28;20039;-58
2022/03/31 00:37:36;;;;;;;18.63;11.13;;;7.30;99.90;;;;;;4999569;28;20053;-56
2022/03/31 00:40:02;;;;;;;19.63;9.70;;;7.30;99.90;;;;;;5043646;28;20489;-57
2022/03/31 00:42:28;;;;;;;22.38;11.30;;;7.20;99.90;;;;;;5039675;28;20029;-55
2022/03/31 00:44:53;;;;;;;24.40;11.80;;;7.10;99.90;;;;;;5041127;28;20052;-57
2022/03/31 00:47:19;;;;;;;22.67;11.65;;;7.10;99.90;;;;;;5041504;28;20033;-54
2022/03/31 00:49:45;;;;;;;24.08;12.05;;;7.10;99.90;;;;;;5047494;28;20028;-57
2022/03/31 00:52:12;;;;;;;24.33;11.82;;;7.00;99.90;;;;;;5034487;28;20029;-56
2022/03/31 00:54:40;;;;;;;27.33;12.00;;;7.00;99.90;;;;;;5034571;28;20111;-57
2022/03/31 00:57:08;;;;;;;21.58;11.85;;;7.00;99.90;;;;;;5039006;28;20037;-58
2022/03/31 00:59:33;;;;;;;22.08;12.75;;;7.00;99.90;;;;;;5041090;28;20069;-53
2022/03/31 01:01:59;;;;;;;24.10;12.90;;;7.00;99.90;;;;;;5042629;28;20060;-58
2022/03/31 01:04:27;;;;;;;21.75;12.43;;;7.00;99.90;;;;;;5044423;28;20028;-56
2022/03/31 01:06:53;;;;;;;22.92;13.27;;;7.00;99.90;;;;;;5041272;28;20033;-56
2022/03/31 01:09:19;;;;;;;24.80;14.13;;;7.00;99.90;;;;;;5036545;28;20396;-54
2022/03/31 01:11:45;;;;;;;24.02;13.80;;;6.90;99.90;;;;;;5039870;28;20086;-57
2022/03/31 01:14:11;;;;;;;28.42;13.77;;;6.90;99.90;;;;;;5037333;28;20038;-58
2022/03/31 01:16:37;;;;;;;30.08;15.95;;;6.80;99.90;;;;;;5037362;28;20086;-56
2022/03/31 01:19:04;;;;;;;39.08;15.85;;;6.80;99.90;;;;;;5041011;28;20108;-57
2022/03/31 01:21:30;;;;;;;29.20;14.32;;;6.80;99.90;;;;;;5044328;28;20542;-55
2022/03/31 01:23:56;;;;;;;25.45;14.90;;;6.80;99.90;;;;;;5036657;28;20079;-53
2022/03/31 01:26:22;;;;;;;29.90;15.52;;;6.70;99.90;;;;;;5037863;28;20116;-55
2022/03/31 01:28:47;;;;;;;29.02;16.27;;;6.70;99.90;;;;;;5038063;28;20026;-51
2022/03/31 01:31:13;;;;;;;29.50;15.18;;;6.60;99.90;;;;;;5038590;28;20041;-54
2022/03/31 01:33:41;;;;;;;26.08;16.50;;;6.60;99.90;;;;;;5045069;28;20040;-56
2022/03/31 01:36:07;;;;;;;31.52;15.77;;;6.60;99.90;;;;;;5021300;28;20034;-55
2022/03/31 01:38:33;;;;;;;25.92;17.23;;;6.60;99.90;;;;;;5031789;28;20056;-57
2022/03/31 01:40:59;;;;;;;28.42;16.20;;;6.50;99.90;;;;;;5033876;28;20049;-56
2022/03/31 01:43:26;;;;;;;33.50;16.10;;;6.50;99.90;;;;;;5040412;28;20025;-59
2022/03/31 01:45:53;;;;;;;33.85;17.23;;;6.40;99.90;;;;;;5041659;28;20041;-56
2022/03/31 01:48:19;;;;;;;35.97;18.52;;;6.40;99.90;;;;;;5038764;28;20032;-55
2022/03/31 01:50:45;;;;;;;29.00;16.77;;;6.40;99.90;;;;;;5047144;28;20033;-56
2022/03/31 01:53:10;;;;;;;32.28;18.50;;;6.40;99.90;;;;;;5050344;28;20029;-56
2022/03/31 01:55:36;;;;;;;33.17;17.75;;;6.40;99.90;;;;;;5051866;28;20028;-53
2022/03/31 01:58:03;;;;;;;32.67;16.98;;;6.30;99.90;;;;;;5039620;28;20021;-55
2022/03/31 02:00:29;;;;;;;36.47;18.20;;;6.40;99.90;;;;;;5037319;28;20564;-56
2022/03/31 02:02:54;;;;;;;34.83;17.88;;;6.30;99.90;;;;;;5038734;28;20025;-52
2022/03/31 02:05:21;;;;;;;34.13;16.92;;;6.30;99.90;;;;;;5035981;28;20385;-52
2022/03/31 02:07:47;;;;;;;32.20;17.73;;;6.30;99.90;;;;;;5031712;28;20024;-56
2022/03/31 02:10:13;;;;;;;30.50;16.77;;;6.30;99.90;;;;;;5042167;28;20026;-58
2022/03/31 02:12:40;;;;;;;34.00;17.13;;;6.30;99.90;;;;;;5040623;28;20025;-57
2022/03/31 02:15:08;;;;;;;33.08;17.88;;;6.20;99.90;;;;;;5042533;28;20514;-58
2022/03/31 02:17:34;;;;;;;36.50;18.00;;;6.30;99.90;;;;;;5040811;28;20075;-56
2022/03/31 02:19:59;;;;;;;32.13;16.88;;;6.20;99.90;;;;;;5036895;28;20048;-55
2022/03/31 02:22:25;;;;;;;32.00;18.08;;;6.20;99.90;;;;;;5042936;28;20035;-55
2022/03/31 02:24:50;;;;;;;43.75;19.63;;;6.20;99.90;;;;;;5039008;28;20508;-56
2022/03/31 02:27:16;;;;;;;34.90;19.27;;;6.20;99.90;;;;;;5038304;28;20484;-54
2022/03/31 02:29:41;;;;;;;36.03;19.33;;;6.10;99.90;;;;;;5037792;28;20095;-54
2022/03/31 02:32:07;;;;;;;37.15;19.90;;;6.10;99.90;;;;;;5038071;28;20041;-56
2022/03/31 02:34:34;;;;;;;29.55;17.30;;;6.10;99.90;;;;;;5037364;28;22339;-55
2022/03/31 02:37:00;;;;;;;31.40;17.65;;;6.20;99.90;;;;;;5019659;28;20049;-55
2022/03/31 02:39:28;;;;;;;30.05;17.27;;;6.20;99.90;;;;;;5035263;28;20172;-58
2022/03/31 02:41:57;;;;;;;33.10;18.05;;;6.20;99.90;;;;;;5035990;28;20032;-58
2022/03/31 02:44:23;;;;;;;30.83;18.02;;;6.20;99.90;;;;;;5038245;28;20075;-57
2022/03/31 02:46:48;;;;;;;37.58;18.77;;;6.20;99.90;;;;;;5035107;28;20031;-50
2022/03/31 02:49:14;;;;;;;32.17;19.10;;;6.20;99.90;;;;;;5033837;28;20029;-57
2022/03/31 02:51:39;;;;;;;33.63;16.80;;;6.20;99.90;;;;;;5046406;28;20496;-56
2022/03/31 02:56:49;;;;;;;33.60;18.30;;;6.20;99.90;;;;;;5032887;28;20131;-56
2022/03/31 02:59:15;;;;;;;33.28;17.60;;;6.20;99.90;;;;;;5039393;28;20523;-55
2022/03/31 03:01:43;;;;;;;35.72;18.45;;;6.20;99.90;;;;;;5038727;28;20040;-59
2022/03/31 03:04:09;;;;;;;34.97;19.08;;;6.20;99.90;;;;;;5043102;28;20396;-56
2022/03/31 03:06:35;;;;;;;38.38;19.23;;;6.20;99.90;;;;;;5033104;28;20024;-52
2022/03/31 03:09:00;;;;;;;39.92;18.88;;;6.20;99.90;;;;;;5031393;28;20030;-57
2022/03/31 03:11:26;;;;;;;38.25;20.73;;;6.20;99.90;;;;;;5040970;28;20028;-57
2022/03/31 03:13:51;;;;;;;35.75;19.13;;;6.20;99.90;;;;;;5040627;28;20025;-56
2022/03/31 03:16:17;;;;;;;36.95;19.13;;;6.10;99.90;;;;;;5039726;28;20067;-50
2022/03/31 03:18:43;;;;;;;36.38;19.17;;;6.10;99.90;;;;;;5037182;28;20045;-49
2022/03/31 03:21:09;;;;;;;38.20;19.10;;;6.10;99.90;;;;;;5033448;28;20083;-55
2022/03/31 03:23:35;;;;;;;31.35;18.83;;;6.10;99.90;;;;;;5038227;28;20026;-56
2022/03/31 03:26:02;;;;;;;38.22;19.35;;;6.10;99.90;;;;;;5042886;28;20017;-56
2022/03/31 03:28:29;;;;;;;38.38;20.42;;;6.10;99.90;;;;;;5035963;28;20040;-56
2022/03/31 03:30:55;;;;;;;36.78;19.83;;;6.10;99.90;;;;;;5038621;28;20053;-58
2022/03/31 03:33:20;;;;;;;35.95;19.45;;;6.10;99.90;;;;;;5039496;28;20048;-58
2022/03/31 03:35:46;;;;;;;34.55;18.63;;;6.10;99.90;;;;;;5035486;28;20037;-59
2022/03/31 03:38:14;;;;;;;36.13;20.42;;;6.10;99.90;;;;;;5016014;28;20037;-57
2022/03/31 03:40:40;;;;;;;40.35;21.42;;;6.10;99.90;;;;;;5032741;28;20176;-57
2022/03/31 03:43:06;;;;;;;37.17;22.23;;;6.10;99.90;;;;;;5035836;28;20091;-59
2022/03/31 03:45:32;;;;;;;38.55;20.38;;;6.10;99.90;;;;;;5036446;28;20028;-56
2022/03/31 03:47:59;;;;;;;42.90;21.50;;;6.10;99.90;;;;;;5039892;28;20116;-57
2022/03/31 03:50:25;;;;;;;35.92;19.15;;;6.10;99.90;;;;;;5039759;28;20029;-54
2022/03/31 03:52:51;;;;;;;34.15;20.10;;;6.10;99.90;;;;;;5030773;28;20021;-57
2022/03/31 03:55:17;;;;;;;32.90;19.05;;;6.10;99.90;;;;;;5046261;28;20387;-56
2022/03/31 03:57:42;;;;;;;38.55;19.65;;;6.10;99.90;;;;;;5039762;28;20087;-58
2022/03/31 04:00:09;;;;;;;35.17;19.73;;;6.10;99.90;;;;;;5040161;28;20074;-55
2022/03/31 04:02:36;;;;;;;38.92;19.40;;;6.10;99.90;;;;;;5039670;28;20017;-55
2022/03/31 04:05:01;;;;;;;33.05;19.75;;;6.00;99.90;;;;;;5035721;28;20443;-56
2022/03/31 04:07:27;;;;;;;34.70;19.40;;;6.00;99.90;;;;;;5033178;28;20025;-56
2022/03/31 04:09:52;;;;;;;42.28;20.40;;;6.00;99.90;;;;;;5042186;28;20440;-57
2022/03/31 04:12:18;;;;;;;38.25;20.33;;;6.00;99.90;;;;;;5034019;28;20129;-57
2022/03/31 04:14:44;;;;;;;34.55;19.48;;;6.00;99.90;;;;;;5036039;28;20037;-56
2022/03/31 04:17:09;;;;;;;33.67;19.17;;;6.00;99.90;;;;;;5040655;28;20484;-52
2022/03/31 04:19:35;;;;;;;33.05;18.25;;;5.90;99.90;;;;;;5045470;28;20025;-55
2022/03/31 04:22:00;;;;;;;36.67;20.02;;;5.90;99.90;;;;;;5041934;28;20404;-56
2022/03/31 04:24:26;;;;;;;33.63;18.50;;;6.00;99.90;;;;;;5033601;28;20670;-56
2022/03/31 04:26:51;;;;;;;34.67;19.23;;;6.00;99.90;;;;;;5035042;28;20032;-55
2022/03/31 04:29:17;;;;;;;36.90;20.63;;;5.90;99.90;;;;;;5042430;28;20029;-55
2022/03/31 04:31:43;;;;;;;36.53;20.42;;;5.90;99.90;;;;;;5039556;28;20036;-58
2022/03/31 04:34:15;;;;;;;40.53;19.70;;;5.90;99.90;;;;;;5039135;28;20033;-58
2022/03/31 04:36:42;;;;;;;32.40;18.63;;;5.90;99.90;;;;;;5049573;28;20029;-57
2022/03/31 04:39:08;;;;;;;38.10;18.73;;;5.90;99.90;;;;;;5030945;28;20041;-57
2022/03/31 04:41:33;;;;;;;40.10;21.02;;;5.80;99.90;;;;;;5044474;28;20040;-56
2022/03/31 04:43:59;;;;;;;45.50;22.30;;;5.80;99.90;;;;;;5040834;28;20025;-55
2022/03/31 04:46:25;;;;;;;37.85;19.90;;;5.80;99.90;;;;;;5038492;28;20040;-56
2022/03/31 04:48:51;;;;;;;39.13;21.10;;;5.70;99.90;;;;;;5041633;28;20029;-59
2022/03/31 04:51:16;;;;;;;43.35;21.98;;;5.70;99.90;;;;;;5051325;28;20029;-59
2022/03/31 04:53:42;;;;;;;43.53;21.33;;;5.70;99.90;;;;;;5040006;28;20041;-56
2022/03/31 04:56:07;;;;;;;40.65;21.08;;;5.70;99.90;;;;;;5047158;28;20029;-54
2022/03/31 04:58:36;;;;;;;41.13;22.13;;;5.80;99.90;;;;;;5038593;28;20507;-54
2022/03/31 05:01:02;;;;;;;39.67;20.92;;;5.80;99.90;;;;;;5040560;28;20048;-52
2022/03/31 05:03:27;;;;;;;33.20;21.33;;;5.70;99.90;;;;;;5041273;28;20130;-58
2022/03/31 05:05:53;;;;;;;34.13;19.20;;;5.70;99.90;;;;;;5039344;28;20036;-60
2022/03/31 05:08:18;;;;;;;38.03;19.92;;;5.70;99.90;;;;;;5049550;28;20024;-49
2022/03/31 05:10:45;;;;;;;34.88;19.83;;;5.70;99.90;;;;;;5039959;28;20036;-51
2022/03/31 05:13:11;;;;;;;35.15;20.33;;;5.70;99.90;;;;;;5036639;28;20021;-54
2022/03/31 05:15:37;;;;;;;43.53;21.92;;;5.70;99.90;;;;;;5040963;28;20087;-57
2022/03/31 05:18:02;;;;;;;37.15;19.83;;;5.60;99.90;;;;;;5041489;28;20979;-58
2022/03/31 05:20:28;;;;;;;34.83;18.65;;;5.60;99.90;;;;;;5039797;28;20056;-53
2022/03/31 05:22:54;;;;;;;35.63;18.90;;;5.60;99.90;;;;;;5050861;28;20056;-56
2022/03/31 05:25:19;;;;;;;37.72;19.75;;;5.60;99.90;;;;;;5051470;28;20022;-58
2022/03/31 05:27:46;;;;;;;33.70;17.95;;;5.60;99.90;;;;;;5043682;28;20455;-58
2022/03/31 05:30:14;;;;;;;33.33;18.90;;;5.70;99.90;;;;;;5034646;28;20029;-54
2022/03/31 05:32:40;;;;;;;35.20;19.08;;;5.60;99.90;;;;;;5040105;28;20116;-56
2022/03/31 05:35:09;;;;;;;36.25;18.98;;;5.60;99.90;;;;;;5048361;28;20100;-58
2022/03/31 05:37:35;;;;;;;37.92;20.02;;;5.60;99.90;;;;;;5018862;28;20095;-56
2022/03/31 05:40:06;;;;;;;33.42;20.00;;;5.60;99.90;;;;;;5038532;28;20025;-60
2022/03/31 05:42:33;;;;;;;39.25;19.45;;;5.60;99.90;;;;;;5037580;28;20395;-57
2022/03/31 05:44:59;;;;;;;40.85;19.55;;;5.60;99.90;;;;;;5040583;28;20404;-58
2022/03/31 05:47:25;;;;;;;39.58;19.17;;;5.60;99.90;;;;;;5038116;28;20051;-58
2022/03/31 05:49:51;;;;;;;31.63;18.52;;;5.60;99.90;;;;;;5043386;28;20025;-57
2022/03/31 05:52:17;;;;;;;38.83;20.15;;;5.70;99.90;;;;;;5042924;28;20021;-58
2022/03/31 05:54:43;;;;;;;35.25;19.92;;;5.70;99.90;;;;;;5035623;28;20104;-54
2022/03/31 05:57:09;;;;;;;35.13;20.17;;;5.60;99.90;;;;;;5037598;28;20069;-56
2022/03/31 05:59:34;;;;;;;34.88;20.20;;;5.70;99.90;;;;;;5039293;28;20068;-57
2022/03/31 06:02:01;;;;;;;47.20;21.40;;;5.60;99.90;;;;;;5038143;28;20074;-57
2022/03/31 06:04:27;;;;;;;42.45;20.50;;;5.70;99.90;;;;;;5039972;28;20013;-57
2022/03/31 06:06:52;;;;;;;40.00;19.55;;;5.70;99.90;;;;;;5047761;28;20668;-56
2022/03/31 06:09:18;;;;;;;40.33;21.17;;;5.70;99.90;;;;;;5038737;28;20025;-57
2022/03/31 06:11:44;;;;;;;45.85;21.02;;;5.70;99.90;;;;;;5037344;28;20730;-54
2022/03/31 06:14:11;;;;;;;43.67;21.83;;;5.70;99.90;;;;;;5036887;28;20021;-57
2022/03/31 06:16:37;;;;;;;41.55;20.20;;;5.70;99.90;;;;;;5037367;28;20029;-57
2022/03/31 06:19:03;;;;;;;35.15;19.98;;;5.80;99.90;;;;;;5039827;28;20522;-57
2022/03/31 06:21:28;;;;;;;34.67;18.27;;;5.80;99.90;;;;;;5040416;28;20623;-56
2022/03/31 06:23:54;;;;;;;34.47;19.10;;;5.90;99.90;;;;;;5039868;28;20144;-56
2022/03/31 06:26:20;;;;;;;38.83;19.40;;;5.90;99.90;;;;;;5039180;28;20120;-56
2022/03/31 06:28:45;;;;;;;33.50;19.25;;;5.90;99.90;;;;;;5036891;28;20523;-53
2022/03/31 06:31:11;;;;;;;29.98;17.58;;;5.90;99.90;;;;;;5040648;28;20036;-59
2022/03/31 06:33:37;;;;;;;32.67;17.85;;;5.90;99.90;;;;;;5037082;28;20046;-53
2022/03/31 06:36:03;;;;;;;27.90;17.15;;;5.90;99.90;;;;;;5036684;28;20026;-61
2022/03/31 06:38:29;;;;;;;33.47;17.58;;;5.90;99.90;;;;;;5028308;28;20424;-58
2022/03/31 06:41:08;;;;;;;31.20;17.67;;;6.00;99.90;;;;;;5047468;28;20025;-56
2022/03/31 06:43:34;;;;;;;32.05;16.80;;;6.10;99.90;;;;;;5043716;28;21254;-57
2022/03/31 06:46:00;;;;;;;29.83;16.38;;;6.10;99.90;;;;;;5035943;28;20108;-57
2022/03/31 06:48:26;;;;;;;27.52;16.13;;;6.20;99.90;;;;;;5035631;28;20606;-58
2022/03/31 06:50:52;;;;;;;30.63;16.48;;;6.20;99.90;;;;;;5041302;28;20050;-56
2022/03/31 06:53:18;;;;;;;29.15;16.85;;;6.20;99.90;;;;;;5036403;28;20029;-56
2022/03/31 06:55:44;;;;;;;30.00;16.65;;;6.30;99.90;;;;;;5038712;28;20047;-57
2022/03/31 06:58:10;;;;;;;30.10;14.93;;;6.40;99.90;;;;;;5033662;28;20029;-57
2022/03/31 07:00:36;;;;;;;29.45;17.30;;;6.50;99.90;;;;;;5036507;28;20033;-57
2022/03/31 07:03:01;;;;;;;25.38;15.38;;;6.50;99.90;;;;;;5036756;28;20737;-59
2022/03/31 07:05:28;;;;;;;27.10;15.93;;;6.60;99.90;;;;;;5043388;28;20066;-57
2022/03/31 07:07:53;;;;;;;25.02;14.98;;;6.60;99.90;;;;;;5033051;28;20036;-59
2022/03/31 07:10:21;;;;;;;25.58;14.25;;;6.60;99.90;;;;;;5032157;28;20021;-58
2022/03/31 07:12:47;;;;;;;28.63;14.45;;;6.50;99.90;;;;;;5035983;28;20025;-55
2022/03/31 07:15:13;;;;;;;25.55;13.95;;;6.70;99.90;;;;;;5036114;28;20506;-54
2022/03/31 07:17:39;;;;;;;25.00;13.57;;;6.70;99.90;;;;;;5036338;28;20029;-56
2022/03/31 07:20:05;;;;;;;22.40;12.85;;;6.70;99.90;;;;;;5038710;28;20408;-57
2022/03/31 07:22:32;;;;;;;22.60;12.77;;;6.80;99.90;;;;;;5045087;28;20109;-55
2022/03/31 07:24:58;;;;;;;27.85;14.35;;;6.90;99.90;;;;;;5036704;28;20028;-58
2022/03/31 07:27:24;;;;;;;25.02;13.52;;;7.10;99.90;;;;;;5043625;28;20427;-56
2022/03/31 07:29:51;;;;;;;24.23;13.35;;;7.10;99.90;;;;;;5033767;28;20021;-59
2022/03/31 07:32:16;;;;;;;27.83;13.23;;;6.90;99.90;;;;;;5035883;28;20025;-57
2022/03/31 07:34:42;;;;;;;26.38;14.43;;;6.80;99.90;;;;;;5041903;28;20788;-55
2022/03/31 07:37:07;;;;;;;25.77;13.52;;;6.80;99.90;;;;;;5044657;28;20365;-57
2022/03/31 07:39:35;;;;;;;24.50;13.82;;;6.60;99.90;;;;;;5030987;28;20287;-57
2022/03/31 07:42:01;;;;;;;25.58;13.55;;;6.50;99.90;;;;;;5046110;28;20071;-58
2022/03/31 07:44:26;;;;;;;23.48;13.32;;;6.30;99.90;;;;;;5039153;28;22102;-56
2022/03/31 07:46:52;;;;;;;25.85;14.50;;;6.10;99.90;;;;;;5038027;28;20043;-57
2022/03/31 07:49:18;;;;;;;32.78;14.73;;;6.00;99.90;;;;;;5038305;28;20113;-57
2022/03/31 07:51:44;;;;;;;26.63;14.40;;;5.90;99.90;;;;;;5051792;28;20036;-56
2022/03/31 07:54:09;;;;;;;25.17;12.48;;;5.80;99.90;;;;;;5050134;28;20091;-56
2022/03/31 07:56:35;;;;;;;22.70;14.15;;;5.80;99.90;;;;;;5037289;28;20695;-56
2022/03/31 07:59:01;;;;;;;24.65;13.23;;;5.70;99.90;;;;;;5041352;28;20128;-58
2022/03/31 08:01:27;;;;;;;26.65;14.50;;;5.70;99.90;;;;;;5038478;28;20025;-55
2022/03/31 08:03:53;;;;;;;27.63;14.45;;;5.70;99.90;;;;;;5038859;28;20056;-55
2022/03/31 08:06:19;;;;;;;23.80;13.30;;;5.70;99.90;;;;;;5036297;28;20033;-57
2022/03/31 08:08:45;;;;;;;21.38;13.68;;;5.70;99.90;;;;;;5045572;28;20025;-49
2022/03/31 08:11:10;;;;;;;27.00;14.82;;;5.80;99.90;;;;;;5044031;28;20025;-56
2022/03/31 08:13:36;;;;;;;28.77;14.82;;;5.80;99.90;;;;;;5040690;28;20603;-55
2022/03/31 08:16:04;;;;;;;34.83;14.57;;;5.80;99.90;;;;;;5041805;28;20070;-59
2022/03/31 08:18:31;;;;;;;30.40;16.75;;;5.80;99.90;;;;;;5038665;28;20036;-57
2022/03/31 08:20:57;;;;;;;24.73;14.13;;;5.90;99.90;;;;;;5038857;28;20582;-58
2022/03/31 08:23:23;;;;;;;26.30;15.00;;;6.00;99.90;;;;;;5050370;28;20526;-58
2022/03/31 08:25:49;;;;;;;25.75;14.15;;;6.10;99.90;;;;;;5033824;28;20021;-58
2022/03/31 08:28:14;;;;;;;28.67;15.25;;;6.20;99.90;;;;;;5044988;28;20032;-54
2022/03/31 08:30:40;;;;;;;27.83;14.10;;;6.20;99.90;;;;;;5047541;28;20025;-57
2022/03/31 08:33:05;;;;;;;24.73;13.80;;;6.20;99.90;;;;;;5043480;28;20025;-56
2022/03/31 08:35:31;;;;;;;29.35;15.75;;;6.30;99.90;;;;;;5042298;28;20029;-56
2022/03/31 08:37:56;;;;;;;28.38;14.23;;;6.20;99.90;;;;;;5030007;28;20041;-57
2022/03/31 08:40:22;;;;;;;26.60;14.77;;;6.30;99.90;;;;;;5039212;28;20048;-56
2022/03/31 08:42:48;;;;;;;30.80;13.95;;;6.40;99.90;;;;;;5044886;28;20163;-56
2022/03/31 08:45:17;;;;;;;27.67;15.85;;;6.40;99.90;;;;;;5041573;28;20036;-59
2022/03/31 08:47:45;;;;;;;26.05;15.07;;;6.50;99.90;;;;;;5039187;28;20036;-57
2022/03/31 08:50:12;;;;;;;26.42;15.02;;;6.50;99.90;;;;;;5044366;28;20093;-56
2022/03/31 08:52:38;;;;;;;28.33;14.40;;;6.50;99.90;;;;;;5044766;28;20029;-58
2022/03/31 08:55:05;;;;;;;26.33;14.77;;;6.70;99.90;;;;;;5050792;28;20470;-59
2022/03/31 08:57:45;;;;;;;26.58;14.20;;;6.70;99.90;;;;;;5042493;28;20025;-59
2022/03/31 09:00:12;;;;;;;24.70;14.50;;;6.90;99.90;;;;;;5039817;28;20032;-55
2022/03/31 09:02:39;;;;;;;24.73;14.13;;;7.00;99.90;;;;;;5045876;28;20040;-55
2022/03/31 09:05:11;;;;;;;27.17;15.40;;;7.10;99.90;;;;;;5042670;28;20403;-59
2022/03/31 09:07:58;;;;;;;23.75;14.40;;;7.30;99.90;;;;;;5047128;28;20024;-58
2022/03/31 09:10:32;;;;;;;22.02;13.35;;;7.40;99.90;;;;;;5043130;28;20068;-60
2022/03/31 09:13:00;;;;;;;22.15;12.20;;;7.40;99.90;;;;;;5043886;28;20017;-53
2022/03/31 09:15:26;;;;;;;20.38;12.15;;;7.50;99.90;;;;;;5041087;28;20025;-57
2022/03/31 09:17:59;;;;;;;25.58;12.25;;;7.50;99.90;;;;;;5044623;28;20029;-57
2022/03/31 09:20:40;;;;;;;23.92;12.20;;;7.60;99.90;;;;;;5046491;28;20037;-57
2022/03/31 09:23:06;;;;;;;17.92;11.40;;;7.80;99.90;;;;;;5032715;28;20116;-56
2022/03/31 09:25:32;;;;;;;21.58;11.48;;;7.70;99.90;;;;;;5043438;28;20092;-57
2022/03/31 09:28:01;;;;;;;20.35;11.93;;;7.80;99.90;;;;;;5047453;28;20029;-57
2022/03/31 09:30:27;;;;;;;18.88;11.10;;;7.90;99.90;;;;;;5038557;28;20017;-58
2022/03/31 09:32:53;;;;;;;19.58;11.65;;;7.80;99.90;;;;;;5040105;28;20032;-56
2022/03/31 09:35:23;;;;;;;26.58;10.88;;;8.00;99.90;;;;;;5046497;28;20028;-56
2022/03/31 09:37:50;;;;;;;21.10;11.57;;;8.10;99.90;;;;;;5028673;28;20148;-56
2022/03/31 09:40:19;;;;;;;23.85;12.05;;;8.10;99.90;;;;;;5045665;28;20029;-58
2022/03/31 09:42:59;;;;;;;20.67;11.18;;;8.00;99.90;;;;;;5039173;28;20108;-54
2022/03/31 09:45:36;;;;;;;24.08;12.38;;;7.90;99.90;;;;;;5044587;28;20021;-58
2022/03/31 09:48:01;;;;;;;23.20;11.80;;;8.00;99.90;;;;;;5035935;28;20059;-57
2022/03/31 09:50:33;;;;;;;21.00;12.25;;;8.10;99.90;;;;;;5043025;28;20060;-57
2022/03/31 09:52:59;;;;;;;23.13;12.48;;;8.00;99.90;;;;;;5049346;28;20396;-56
2022/03/31 09:55:25;;;;;;;19.27;10.02;;;7.80;99.90;;;;;;5042560;28;20107;-57
2022/03/31 09:57:52;;;;;;;23.65;11.52;;;8.00;99.90;;;;;;5040263;28;20441;-56
2022/03/31 10:00:20;;;;;;;19.48;11.65;;;8.20;99.90;;;;;;5039325;28;20035;-56
2022/03/31 10:02:47;;;;;;;20.10;11.18;;;8.30;99.90;;;;;;5039128;28;20021;-58
2022/03/31 10:05:15;;;;;;;21.73;11.32;;;8.40;99.90;;;;;;5045099;28;20033;-59
2022/03/31 10:07:43;;;;;;;20.65;11.60;;;8.60;99.90;;;;;;5043350;28;20040;-58
2022/03/31 10:10:09;;;;;;;21.50;12.25;;;8.80;99.90;;;;;;5046103;28;20048;-57
2022/03/31 10:12:54;;;;;;;24.33;13.80;;;9.00;99.90;;;;;;5042751;28;20033;-58
2022/03/31 10:15:30;;;;;;;23.15;13.68;;;9.10;99.90;;;;;;5041210;28;20029;-57
2022/03/31 10:17:56;;;;;;;22.33;13.10;;;9.10;99.90;;;;;;5036271;28;20074;-57
2022/03/31 10:20:22;;;;;;;20.25;12.75;;;9.30;99.90;;;;;;5037185;28;20030;-58
2022/03/31 10:25:48;;;;;;;22.30;12.73;;;9.30;99.90;;;;;;5043333;28;20031;-57
2022/03/31 10:28:21;;;;;;;18.85;12.30;;;9.30;99.90;;;;;;5033917;28;20061;-58
2022/03/31 10:31:06;;;;;;;24.63;13.10;;;9.40;99.90;;;;;;5042122;28;20025;-57
2022/03/31 10:33:42;;;;;;;20.27;13.45;;;9.50;99.90;;;;;;5036598;28;20029;-57
2022/03/31 10:36:13;;;;;;;20.73;11.57;;;9.30;99.90;;;;;;5040617;28;20024;-57
2022/03/31 10:39:01;;;;;;;19.45;11.50;;;9.40;99.90;;;;;;5022615;28;20044;-56
2022/03/31 10:41:30;;;;;;;17.30;10.82;;;9.20;99.90;;;;;;5042686;28;20025;-57
2022/03/31 10:43:58;;;;;;;16.95;11.43;;;9.20;99.90;;;;;;5036987;28;20034;-58
2022/03/31 10:46:25;;;;;;;20.08;12.30;;;9.10;99.90;;;;;;5039542;28;20021;-55
2022/03/31 10:48:55;;;;;;;24.42;13.48;;;8.90;99.90;;;;;;5034867;28;20055;-57
2022/03/31 10:51:41;;;;;;;21.50;12.43;;;8.70;99.90;;;;;;5050175;28;20082;-56
2022/03/31 10:54:10;;;;;;;20.52;12.60;;;8.80;99.90;;;;;;5033494;28;20048;-53
2022/03/31 10:56:36;;;;;;;19.95;12.27;;;8.60;99.90;;;;;;5034312;28;20495;-57
2022/03/31 10:59:05;;;;;;;21.33;12.80;;;8.50;99.90;;;;;;5035433;28;20025;-59
2022/03/31 11:01:36;;;;;;;23.67;13.50;;;8.50;99.90;;;;;;5040145;28;20159;-57
2022/03/31 11:04:08;;;;;;;22.67;12.70;;;8.50;99.90;;;;;;5038543;28;20773;-56
2022/03/31 11:06:51;;;;;;;19.90;13.15;;;8.30;99.90;;;;;;5046585;28;20136;-58
2022/03/31 11:09:21;;;;;;;20.63;12.63;;;8.30;99.90;;;;;;5042550;28;20070;-57
2022/03/31 11:11:53;;;;;;;23.00;13.30;;;8.30;99.90;;;;;;5032932;28;20135;-56
2022/03/31 11:14:19;;;;;;;23.33;13.80;;;8.30;99.90;;;;;;5036178;28;20074;-58
2022/03/31 11:16:45;;;;;;;24.67;14.07;;;8.10;99.90;;;;;;5032534;28;20037;-54
2022/03/31 11:19:12;;;;;;;22.95;13.13;;;8.00;99.90;;;;;;5031939;28;20057;-58
2022/03/31 11:21:40;;;;;;;21.75;13.32;;;8.10;99.90;;;;;;5041424;28;20140;-54
2022/03/31 11:24:07;;;;;;;22.80;13.73;;;8.10;99.90;;;;;;5039210;28;20041;-60
2022/03/31 11:26:46;;;;;;;22.88;14.75;;;8.20;99.90;;;;;;5037107;28;20500;-57
2022/03/31 11:29:14;;;;;;;21.27;13.57;;;8.50;99.90;;;;;;5035729;28;20108;-55
2022/03/31 11:31:46;;;;;;;25.02;13.95;;;8.50;99.90;;;;;;5032547;28;20562;-57
2022/03/31 11:34:22;;;;;;;20.00;13.23;;;8.70;99.90;;;;;;5036514;28;20179;-54
2022/03/31 11:36:48;;;;;;;22.98;13.50;;;8.70;99.90;;;;;;5032081;28;20025;-57
2022/03/31 11:39:17;;;;;;;23.35;14.38;;;8.90;99.90;;;;;;5023235;28;20524;-55
2022/03/31 11:41:42;;;;;;;21.42;13.85;;;8.90;99.90;;;;;;5041623;28;20040;-58
2022/03/31 11:44:08;;;;;;;24.08;13.27;;;8.90;99.90;;;;;;5034848;28;20034;-57
2022/03/31 11:46:47;;;;;;;24.60;14.82;;;9.00;99.90;;;;;;5036244;28;20112;-59
2022/03/31 11:49:22;;;;;;;21.88;13.63;;;9.10;99.90;;;;;;5037713;28;20013;-55
2022/03/31 11:51:59;;;;;;;26.05;15.32;;;8.90;99.90;;;;;;5040482;28;20484;-57
2022/03/31 11:54:26;;;;;;;21.70;13.48;;;8.60;99.90;;;;;;5035447;28;20251;-56
2022/03/31 11:57:05;;;;;;;20.55;13.60;;;8.60;99.90;;;;;;5044359;28;20025;-60
2022/03/31 11:59:31;;;;;;;30.98;16.40;;;8.80;99.90;;;;;;5034930;28;20033;-51
2022/03/31 12:01:56;;;;;;;21.92;14.07;;;8.80;99.90;;;;;;5035727;28;20098;-59
2022/03/31 12:04:24;;;;;;;21.00;13.50;;;9.00;99.90;;;;;;5033612;28;20026;-56
2022/03/31 12:06:51;;;;;;;21.85;13.75;;;9.10;99.90;;;;;;5045277;28;20047;-52
2022/03/31 12:09:17;;;;;;;26.92;14.63;;;9.20;99.90;;;;;;5038700;28;20021;-56
2022/03/31 12:11:43;;;;;;;22.05;14.45;;;9.30;99.90;;;;;;5034613;28;20124;-58
2022/03/31 12:14:10;;;;;;;20.20;13.55;;;9.40;99.90;;;;;;5033853;28;20493;-56
2022/03/31 12:16:44;;;;;;;22.33;14.07;;;9.40;99.90;;;;;;5036566;28;20029;-58
2022/03/31 12:19:09;;;;;;;23.83;14.20;;;9.60;99.90;;;;;;5039085;28;20070;-58
2022/03/31 12:21:48;;;;;;;24.63;13.70;;;9.70;99.90;;;;;;5036485;28;20407;-55
2022/03/31 12:24:14;;;;;;;21.15;14.50;;;9.70;99.90;;;;;;5036156;28;20376;-58
2022/03/31 12:26:53;;;;;;;22.05;13.65;;;9.90;99.90;;;;;;5036125;28;20597;-60
2022/03/31 12:29:21;;;;;;;20.40;13.73;;;10.00;99.90;;;;;;5036633;28;20045;-60
2022/03/31 12:31:58;;;;;;;22.67;13.27;;;10.00;99.90;;;;;;5043047;28;20653;-58
2022/03/31 12:34:23;;;;;;;21.50;13.60;;;9.90;99.90;;;;;;5040211;28;20037;-56
2022/03/31 12:36:49;;;;;;;22.23;14.02;;;9.90;99.90;;;;;;5053442;28;20538;-58
2022/03/31 12:39:14;;;;;;;23.05;13.55;;;10.00;99.90;;;;;;5025657;28;20083;-59
2022/03/31 12:41:40;;;;;;;19.13;12.60;;;9.90;99.90;;;;;;5038305;28;20044;-59
2022/03/31 12:44:15;;;;;;;22.88;14.02;;;9.90;99.90;;;;;;5041402;28;20025;-59